Sadan Bayraktar — TCRB — position and weather

sailwx.info

Track history (hours):
 
Tides and Currents Weather Stations Pressure Air Temp Water Temp Dewpoint Dewpoint Depression Visibility Wind Speed Wind Dir Waves Ship Positions

Sadan Bayraktar

Last reported at 2014-Oct-22 13:32 UTC. Time now 2014-Oct-24 13:36 UTC.
Position N 40°57' E 028°55'.

Length 116 m; draft 4.7 m.

Type: Cargo ship. MMSI: 271000653.

Date/timePositionNaut miles runAvg speedWind from/ knotsBaromVisibWave heightAir tempDewpointWater temp
2014-Oct-22 13:32N 40°57' E 028°55'1 1.2
2014-Oct-22 12:31N 40°58' E 028°55'0 0.0
2014-Oct-22 11:07N 40°58' E 028°55'0 0.0
2014-Oct-22 09:25N 40°58' E 028°55'0 0.0
2014-Oct-21 23:13N 40°58' E 028°55'0 0.1
2014-Oct-21 22:30N 40°58' E 028°54'0 0.0
2014-Oct-21 21:24N 40°58' E 028°54'0 0.0
2014-Oct-21 20:30N 40°58' E 028°54'0 0.0
2014-Oct-21 19:30N 40°58' E 028°54'0 0.0
2014-Oct-21 18:30N 40°58' E 028°54'0 0.0
2014-Oct-21 17:22N 40°58' E 028°54'0 0.0
2014-Oct-21 16:28N 40°58' E 028°54'0 0.0
2014-Oct-21 15:28N 40°58' E 028°54'0 0.0
2014-Oct-21 14:28N 40°58' E 028°54'0 0.1
2014-Oct-21 12:28N 40°58' E 028°55'0 0.0
2014-Oct-21 10:04N 40°58' E 028°55'0 0.0
2014-Oct-21 05:28N 40°58' E 028°55'0 0.0
2014-Oct-21 04:28N 40°58' E 028°54'0 0.0
2014-Oct-21 03:28N 40°58' E 028°54'0 0.0
2014-Oct-21 02:28N 40°58' E 028°55'0 0.1
2014-Oct-21 01:27N 40°58' E 028°55'0 0.0
2014-Oct-21 00:33N 40°58' E 028°55'0 0.0
2014-Oct-20 23:33N 40°58' E 028°55'0 0.0
2014-Oct-20 22:33N 40°58' E 028°55'0 0.0
2014-Oct-20 21:27N 40°58' E 028°55'0 0.0
2014-Oct-20 20:29N 40°58' E 028°55'0 0.0
2014-Oct-20 19:23N 40°58' E 028°55'0 0.0
2014-Oct-20 18:29N 40°58' E 028°55'0 0.0
2014-Oct-20 17:29N 40°58' E 028°55'4 4.8
2014-Oct-20 16:33N 40°54' E 028°55'1413.0
2014-Oct-20 15:27N 40°40' E 028°48'20 0.6
2014-Oct-19 06:08N 40°25' E 029°05'  
2014-Oct-16 03:16N 38°32' E 025°41'811.7
2014-Oct-16 02:33N 38°24' E 025°37'1211.5
2014-Oct-16 01:33N 38°14' E 025°30'1111.3
2014-Oct-16 00:33N 38°03' E 025°28'1111.1
2014-Oct-15 23:33N 37°52' E 025°25'1110.8
2014-Oct-15 22:30N 37°41' E 025°22'1010.8
2014-Oct-15 21:33N 37°31' E 025°17'1110.8
2014-Oct-15 20:33N 37°24' E 025°08'1110.6
2014-Oct-15 19:33N 37°17' E 024°57'1110.7
2014-Oct-15 18:33N 37°11' E 024°46'1110.7
2014-Oct-15 17:33N 37°05' E 024°35'1110.9
2014-Oct-15 16:33N 36°59' E 024°23'1010.5
2014-Oct-15 15:33N 36°53' E 024°13'10 9.9
2014-Oct-15 14:33N 36°47' E 024°03'11 9.7
2014-Oct-15 13:24N 36°41' E 023°51'810.0
2014-Oct-15 12:33N 36°36' E 023°42'1010.2
2014-Oct-15 11:33N 36°31' E 023°31'2510.3
2014-Oct-15 09:08N 36°24' E 023°01'811.2
2014-Oct-15 08:26N 36°24' E 022°52'104 3.4
2014-Oct-14 02:10N 38°07' E 023°09'1 0.5
2014-Oct-14 00:12N 38°06' E 023°09'1 0.7
2014-Oct-13 23:29N 38°06' E 023°09'1 0.7
2014-Oct-13 22:30N 38°05' E 023°08'1 0.6
2014-Oct-13 21:21N 38°05' E 023°08'0 0.5
2014-Oct-13 20:34N 38°05' E 023°07'0 0.3
2014-Oct-13 19:33N 38°05' E 023°07'0 0.2
2014-Oct-13 18:33N 38°05' E 023°06'0 0.3
2014-Oct-13 17:33N 38°05' E 023°06'2 0.5
2014-Oct-13 13:09N 38°07' E 023°04'  
Track history (hours):
 
Tides and Currents Weather Stations Pressure Air Temp Water Temp Dewpoint Dewpoint Depression Visibility Wind Speed Wind Dir Waves Ship Positions

Sadan Bayraktar

Last reported at 2014-Oct-22 13:32 UTC. Time now 2014-Oct-24 13:36 UTC.
Position N 40°57' E 028°55'.

Length 116 m; draft 4.7 m.

Type: Cargo ship. MMSI: 271000653.

Date/timePositionNaut miles runAvg speedWind from/ knotsBaromVisibWave heightAir tempDewpointWater temp
2014-Oct-22 13:32N 40°57' E 028°55'1 1.2
2014-Oct-22 12:31N 40°58' E 028°55'0 0.0
2014-Oct-22 11:07N 40°58' E 028°55'0 0.0
2014-Oct-22 09:25N 40°58' E 028°55'0 0.0
2014-Oct-21 23:13N 40°58' E 028°55'0 0.1
2014-Oct-21 22:30N 40°58' E 028°54'0 0.0
2014-Oct-21 21:24N 40°58' E 028°54'0 0.0
2014-Oct-21 20:30N 40°58' E 028°54'0 0.0
2014-Oct-21 19:30N 40°58' E 028°54'0 0.0
2014-Oct-21 18:30N 40°58' E 028°54'0 0.0
2014-Oct-21 17:22N 40°58' E 028°54'0 0.0
2014-Oct-21 16:28N 40°58' E 028°54'0 0.0
2014-Oct-21 15:28N 40°58' E 028°54'0 0.0
2014-Oct-21 14:28N 40°58' E 028°54'0 0.1
2014-Oct-21 12:28N 40°58' E 028°55'0 0.0
2014-Oct-21 10:04N 40°58' E 028°55'0 0.0
2014-Oct-21 05:28N 40°58' E 028°55'0 0.0
2014-Oct-21 04:28N 40°58' E 028°54'0 0.0
2014-Oct-21 03:28N 40°58' E 028°54'0 0.0
2014-Oct-21 02:28N 40°58' E 028°55'0 0.1
2014-Oct-21 01:27N 40°58' E 028°55'0 0.0
2014-Oct-21 00:33N 40°58' E 028°55'0 0.0
2014-Oct-20 23:33N 40°58' E 028°55'0 0.0
2014-Oct-20 22:33N 40°58' E 028°55'0 0.0
2014-Oct-20 21:27N 40°58' E 028°55'0 0.0
2014-Oct-20 20:29N 40°58' E 028°55'0 0.0
2014-Oct-20 19:23N 40°58' E 028°55'0 0.0
2014-Oct-20 18:29N 40°58' E 028°55'0 0.0
2014-Oct-20 17:29N 40°58' E 028°55'4 4.8
2014-Oct-20 16:33N 40°54' E 028°55'1413.0
2014-Oct-20 15:27N 40°40' E 028°48'20 0.6
2014-Oct-19 06:08N 40°25' E 029°05'  
2014-Oct-16 03:16N 38°32' E 025°41'811.7
2014-Oct-16 02:33N 38°24' E 025°37'1211.5
2014-Oct-16 01:33N 38°14' E 025°30'1111.3
2014-Oct-16 00:33N 38°03' E 025°28'1111.1
2014-Oct-15 23:33N 37°52' E 025°25'1110.8
2014-Oct-15 22:30N 37°41' E 025°22'1010.8
2014-Oct-15 21:33N 37°31' E 025°17'1110.8
2014-Oct-15 20:33N 37°24' E 025°08'1110.6
2014-Oct-15 19:33N 37°17' E 024°57'1110.7
2014-Oct-15 18:33N 37°11' E 024°46'1110.7
2014-Oct-15 17:33N 37°05' E 024°35'1110.9
2014-Oct-15 16:33N 36°59' E 024°23'1010.5
2014-Oct-15 15:33N 36°53' E 024°13'10 9.9
2014-Oct-15 14:33N 36°47' E 024°03'11 9.7
2014-Oct-15 13:24N 36°41' E 023°51'810.0
2014-Oct-15 12:33N 36°36' E 023°42'1010.2
2014-Oct-15 11:33N 36°31' E 023°31'2510.3
2014-Oct-15 09:08N 36°24' E 023°01'811.2
2014-Oct-15 08:26N 36°24' E 022°52'104 3.4
2014-Oct-14 02:10N 38°07' E 023°09'1 0.5
2014-Oct-14 00:12N 38°06' E 023°09'1 0.7
2014-Oct-13 23:29N 38°06' E 023°09'1 0.7
2014-Oct-13 22:30N 38°05' E 023°08'1 0.6
2014-Oct-13 21:21N 38°05' E 023°08'0 0.5
2014-Oct-13 20:34N 38°05' E 023°07'0 0.3
2014-Oct-13 19:33N 38°05' E 023°07'0 0.2
2014-Oct-13 18:33N 38°05' E 023°06'0 0.3
2014-Oct-13 17:33N 38°05' E 023°06'2 0.5
2014-Oct-13 13:09N 38°07' E 023°04'  

Dump ship's entire track history